sensor_id;sensor_type;location;lat;lon;timestamp;pressure;altitude;pressure_sealevel;temperature;humidity
25759;BME280;13604;52.496;13.456;2023-05-18T00:00:59;102264.44;;;7.30;66.64
25759;BME280;13604;52.496;13.456;2023-05-18T00:03:27;102265.09;;;7.28;67.01
25759;BME280;13604;52.496;13.456;2023-05-18T00:05:54;102261.38;;;7.14;67.32
25759;BME280;13604;52.496;13.456;2023-05-18T00:08:22;102266.41;;;7.23;67.07
25759;BME280;13604;52.496;13.456;2023-05-18T00:10:47;102227.41;;;7.00;67.44
25759;BME280;13604;52.496;13.456;2023-05-18T00:13:12;102227.31;;;6.99;67.21
25759;BME280;13604;52.496;13.456;2023-05-18T00:15:37;102260.31;;;7.22;67.18
25759;BME280;13604;52.496;13.456;2023-05-18T00:18:03;102267.28;;;7.23;67.66
25759;BME280;13604;52.496;13.456;2023-05-18T00:20:28;102269.38;;;7.17;67.69
25759;BME280;13604;52.496;13.456;2023-05-18T00:22:54;102256.06;;;7.12;68.31
25759;BME280;13604;52.496;13.456;2023-05-18T00:25:19;102238.19;;;6.95;68.03
25759;BME280;13604;52.496;13.456;2023-05-18T00:27:44;102270.03;;;7.14;68.30
25759;BME280;13604;52.496;13.456;2023-05-18T00:30:10;102267.81;;;7.09;68.38
25759;BME280;13604;52.496;13.456;2023-05-18T00:32:35;102282.06;;;7.04;68.55
25759;BME280;13604;52.496;13.456;2023-05-18T00:35:01;102241.03;;;6.77;68.83
25759;BME280;13604;52.496;13.456;2023-05-18T00:37:26;102263.56;;;6.89;69.39
25759;BME280;13604;52.496;13.456;2023-05-18T00:39:52;102247.91;;;6.77;69.14
25759;BME280;13604;52.496;13.456;2023-05-18T00:42:17;102235.38;;;6.71;69.21
25759;BME280;13604;52.496;13.456;2023-05-18T00:44:42;102257.63;;;6.79;69.31
25759;BME280;13604;52.496;13.456;2023-05-18T00:47:08;102281.97;;;6.92;69.58
25759;BME280;13604;52.496;13.456;2023-05-18T00:49:33;102274.34;;;6.83;69.81
25759;BME280;13604;52.496;13.456;2023-05-18T00:51:58;102295.94;;;6.84;70.17
25759;BME280;13604;52.496;13.456;2023-05-18T00:54:24;102288.97;;;6.82;70.21
25759;BME280;13604;52.496;13.456;2023-05-18T00:56:50;102260.72;;;6.65;70.70
25759;BME280;13604;52.496;13.456;2023-05-18T00:59:15;102263.69;;;6.59;70.77
25759;BME280;13604;52.496;13.456;2023-05-18T01:01:42;102285.06;;;6.67;70.98
25759;BME280;13604;52.496;13.456;2023-05-18T01:04:08;102273.41;;;6.62;71.26
25759;BME280;13604;52.496;13.456;2023-05-18T01:06:34;102228.59;;;6.32;71.08
25759;BME280;13604;52.496;13.456;2023-05-18T01:09:05;102281.03;;;6.60;71.26
25759;BME280;13604;52.496;13.456;2023-05-18T01:11:37;102301.88;;;6.72;72.00
25759;BME280;13604;52.496;13.456;2023-05-18T01:14:23;102298.41;;;6.61;72.08
25759;BME280;13604;52.496;13.456;2023-05-18T01:16:55;102304.59;;;6.63;72.30
25759;BME280;13604;52.496;13.456;2023-05-18T01:19:54;102307.06;;;6.62;72.67
25759;BME280;13604;52.496;13.456;2023-05-18T01:23:11;102317.28;;;6.60;72.36
25759;BME280;13604;52.496;13.456;2023-05-18T01:25:49;102317.16;;;6.59;72.90
25759;BME280;13604;52.496;13.456;2023-05-18T01:28:21;102306.25;;;6.53;73.40
25759;BME280;13604;52.496;13.456;2023-05-18T01:30:50;102316.25;;;6.69;73.17
25759;BME280;13604;52.496;13.456;2023-05-18T01:33:16;102302.28;;;6.67;73.21
25759;BME280;13604;52.496;13.456;2023-05-18T01:35:41;102323.13;;;6.78;73.07
25759;BME280;13604;52.496;13.456;2023-05-18T01:38:33;102306.44;;;6.75;73.03
25759;BME280;13604;52.496;13.456;2023-05-18T01:43:33;102300.59;;;6.77;72.94
25759;BME280;13604;52.496;13.456;2023-05-18T01:46:04;102296.06;;;6.75;72.45
25759;BME280;13604;52.496;13.456;2023-05-18T01:48:36;102319.66;;;6.88;72.43
25759;BME280;13604;52.496;13.456;2023-05-18T01:51:04;102310.59;;;6.73;72.73
25759;BME280;13604;52.496;13.456;2023-05-18T01:53:36;102326.63;;;6.79;73.50
25759;BME280;13604;52.496;13.456;2023-05-18T01:56:06;102299.03;;;6.59;73.58
25759;BME280;13604;52.496;13.456;2023-05-18T01:58:32;102310.28;;;6.59;73.60
25759;BME280;13604;52.496;13.456;2023-05-18T02:00:58;102303.44;;;6.60;73.49
25759;BME280;13604;52.496;13.456;2023-05-18T02:03:23;102312.09;;;6.60;74.06
25759;BME280;13604;52.496;13.456;2023-05-18T02:05:49;102296.16;;;6.56;74.56
25759;BME280;13604;52.496;13.456;2023-05-18T02:08:14;102334.38;;;6.58;75.06
25759;BME280;13604;52.496;13.456;2023-05-18T02:10:40;102329.69;;;6.54;74.76
25759;BME280;13604;52.496;13.456;2023-05-18T02:13:05;102297.03;;;6.36;75.02
25759;BME280;13604;52.496;13.456;2023-05-18T02:15:30;102327.22;;;6.56;75.24
25759;BME280;13604;52.496;13.456;2023-05-18T02:17:56;102324.50;;;6.44;75.43
25759;BME280;13604;52.496;13.456;2023-05-18T02:20:22;102294.44;;;6.25;75.83
25759;BME280;13604;52.496;13.456;2023-05-18T02:22:47;102325.78;;;6.39;75.79
25759;BME280;13604;52.496;13.456;2023-05-18T02:25:12;102332.38;;;6.35;76.22
25759;BME280;13604;52.496;13.456;2023-05-18T02:27:38;102331.56;;;6.36;76.22
25759;BME280;13604;52.496;13.456;2023-05-18T02:30:03;102298.78;;;6.16;76.09
25759;BME280;13604;52.496;13.456;2023-05-18T02:32:29;102324.94;;;6.30;76.92
25759;BME280;13604;52.496;13.456;2023-05-18T02:34:56;102308.13;;;6.24;76.88
25759;BME280;13604;52.496;13.456;2023-05-18T02:37:21;102330.28;;;6.31;76.60
25759;BME280;13604;52.496;13.456;2023-05-18T02:39:47;102340.47;;;6.30;76.58
25759;BME280;13604;52.496;13.456;2023-05-18T02:42:12;102297.59;;;6.02;77.08
25759;BME280;13604;52.496;13.456;2023-05-18T02:44:37;102330.78;;;6.27;76.89
25759;BME280;13604;52.496;13.456;2023-05-18T02:47:03;102274.88;;;5.89;77.10
25759;BME280;13604;52.496;13.456;2023-05-18T02:49:28;102295.34;;;5.97;77.58
25759;BME280;13604;52.496;13.456;2023-05-18T02:51:53;102301.00;;;5.93;77.46
25759;BME280;13604;52.496;13.456;2023-05-18T02:54:19;102315.13;;;5.96;78.20
25759;BME280;13604;52.496;13.456;2023-05-18T02:56:45;102305.53;;;5.95;78.42
25759;BME280;13604;52.496;13.456;2023-05-18T02:59:10;102332.53;;;6.07;78.53
25759;BME280;13604;52.496;13.456;2023-05-18T03:01:35;102341.69;;;6.04;78.75
25759;BME280;13604;52.496;13.456;2023-05-18T03:04:02;102336.53;;;6.04;78.82
25759;BME280;13604;52.496;13.456;2023-05-18T03:06:27;102305.72;;;5.78;79.15
25759;BME280;13604;52.496;13.456;2023-05-18T03:08:54;102338.47;;;5.87;79.82
25759;BME280;13604;52.496;13.456;2023-05-18T03:11:21;102333.22;;;5.77;80.22
25759;BME280;13604;52.496;13.456;2023-05-18T03:13:47;102307.19;;;5.65;80.21
25759;BME280;13604;52.496;13.456;2023-05-18T03:16:12;102305.91;;;5.70;80.50
25759;BME280;13604;52.496;13.456;2023-05-18T03:18:38;102326.41;;;5.78;81.25
25759;BME280;13604;52.496;13.456;2023-05-18T03:21:04;102335.81;;;5.77;81.37
25759;BME280;13604;52.496;13.456;2023-05-18T03:23:29;102341.47;;;5.92;81.21
25759;BME280;13604;52.496;13.456;2023-05-18T03:25:55;102329.66;;;5.85;80.94
25759;BME280;13604;52.496;13.456;2023-05-18T03:28:20;102336.03;;;5.89;81.34
25759;BME280;13604;52.496;13.456;2023-05-18T03:30:46;102346.91;;;5.95;81.45
25759;BME280;13604;52.496;13.456;2023-05-18T03:33:12;102347.13;;;5.88;81.46
25759;BME280;13604;52.496;13.456;2023-05-18T03:35:37;102350.00;;;5.91;81.01
25759;BME280;13604;52.496;13.456;2023-05-18T03:38:06;102354.97;;;5.98;80.96
25759;BME280;13604;52.496;13.456;2023-05-18T03:40:32;102329.31;;;5.72;81.84
25759;BME280;13604;52.496;13.456;2023-05-18T03:42:57;102314.19;;;5.66;81.51
25759;BME280;13604;52.496;13.456;2023-05-18T03:45:23;102325.38;;;5.76;81.28
25759;BME280;13604;52.496;13.456;2023-05-18T03:47:48;102349.34;;;5.94;81.46
25759;BME280;13604;52.496;13.456;2023-05-18T03:50:14;102276.34;;;5.48;81.30
25759;BME280;13604;52.496;13.456;2023-05-18T03:52:39;102371.56;;;6.00;81.53
25759;BME280;13604;52.496;13.456;2023-05-18T03:55:05;102328.19;;;5.79;81.42
25759;BME280;13604;52.496;13.456;2023-05-18T03:57:31;102342.09;;;5.89;81.60
25759;BME280;13604;52.496;13.456;2023-05-18T03:59:56;102328.59;;;5.83;81.27
25759;BME280;13604;52.496;13.456;2023-05-18T04:02:22;102365.88;;;6.04;81.61
25759;BME280;13604;52.496;13.456;2023-05-18T04:04:48;102364.81;;;6.02;81.32
25759;BME280;13604;52.496;13.456;2023-05-18T04:07:14;102347.13;;;5.88;81.60
25759;BME280;13604;52.496;13.456;2023-05-18T04:09:42;102357.41;;;5.97;81.60
25759;BME280;13604;52.496;13.456;2023-05-18T04:12:08;102365.94;;;5.96;81.85
25759;BME280;13604;52.496;13.456;2023-05-18T04:14:34;102378.03;;;6.05;82.29
25759;BME280;13604;52.496;13.456;2023-05-18T04:16:59;102347.63;;;5.84;82.44
25759;BME280;13604;52.496;13.456;2023-05-18T04:19:36;102363.50;;;5.97;82.34
25759;BME280;13604;52.496;13.456;2023-05-18T04:22:02;102387.72;;;6.08;82.47
25759;BME280;13604;52.496;13.456;2023-05-18T04:24:33;102391.63;;;6.13;82.13
25759;BME280;13604;52.496;13.456;2023-05-18T04:27:00;102378.94;;;6.06;82.35
25759;BME280;13604;52.496;13.456;2023-05-18T04:29:27;102362.25;;;6.02;82.02
25759;BME280;13604;52.496;13.456;2023-05-18T04:31:53;102375.34;;;6.14;81.68
25759;BME280;13604;52.496;13.456;2023-05-18T04:34:28;102372.03;;;6.25;80.88
25759;BME280;13604;52.496;13.456;2023-05-18T04:36:54;102399.69;;;6.45;81.00
25759;BME280;13604;52.496;13.456;2023-05-18T04:39:21;102394.63;;;6.47;80.51
25759;BME280;13604;52.496;13.456;2023-05-18T04:41:48;102369.63;;;6.37;80.25
25759;BME280;13604;52.496;13.456;2023-05-18T04:44:13;102380.16;;;6.49;80.07
25759;BME280;13604;52.496;13.456;2023-05-18T04:46:39;102376.94;;;6.52;79.70
25759;BME280;13604;52.496;13.456;2023-05-18T04:49:05;102361.25;;;6.50;79.34
25759;BME280;13604;52.496;13.456;2023-05-18T04:51:30;102371.16;;;6.65;79.12
25759;BME280;13604;52.496;13.456;2023-05-18T04:53:55;102399.41;;;6.82;78.81
25759;BME280;13604;52.496;13.456;2023-05-18T04:56:21;102378.28;;;6.77;78.20
25759;BME280;13604;52.496;13.456;2023-05-18T04:58:47;102404.84;;;6.95;78.26
25759;BME280;13604;52.496;13.456;2023-05-18T05:01:13;102412.66;;;7.06;78.08
25759;BME280;13604;52.496;13.456;2023-05-18T05:03:42;102378.19;;;6.86;77.93
25759;BME280;13604;52.496;13.456;2023-05-18T05:06:08;102380.50;;;6.93;78.63
25759;BME280;13604;52.496;13.456;2023-05-18T05:08:33;102388.56;;;7.07;77.49
25759;BME280;13604;52.496;13.456;2023-05-18T05:10:59;102359.78;;;6.83;77.08
25759;BME280;13604;52.496;13.456;2023-05-18T05:13:25;102412.53;;;7.14;77.43
25759;BME280;13604;52.496;13.456;2023-05-18T05:15:50;102407.88;;;7.21;78.18
25759;BME280;13604;52.496;13.456;2023-05-18T05:18:15;102392.84;;;7.16;78.18
25759;BME280;13604;52.496;13.456;2023-05-18T05:20:41;102392.22;;;7.19;78.07
25759;BME280;13604;52.496;13.456;2023-05-18T05:23:06;102380.00;;;7.28;77.91
25759;BME280;13604;52.496;13.456;2023-05-18T05:25:31;102389.47;;;7.38;76.94
25759;BME280;13604;52.496;13.456;2023-05-18T05:27:57;102390.00;;;7.44;76.02
25759;BME280;13604;52.496;13.456;2023-05-18T05:30:22;102331.44;;;7.26;75.94
25759;BME280;13604;52.496;13.456;2023-05-18T05:32:47;102339.59;;;7.41;75.40
25759;BME280;13604;52.496;13.456;2023-05-18T05:35:13;102406.78;;;7.90;74.56
25759;BME280;13604;52.496;13.456;2023-05-18T05:37:38;102404.28;;;8.02;73.70
25759;BME280;13604;52.496;13.456;2023-05-18T05:40:04;102407.78;;;8.13;73.64
25759;BME280;13604;52.496;13.456;2023-05-18T05:42:30;102424.72;;;8.30;73.07
25759;BME280;13604;52.496;13.456;2023-05-18T05:44:55;102408.25;;;8.29;73.04
25759;BME280;13604;52.496;13.456;2023-05-18T05:47:21;102434.13;;;8.50;72.16
25759;BME280;13604;52.496;13.456;2023-05-18T05:49:46;102396.78;;;8.38;72.53
25759;BME280;13604;52.496;13.456;2023-05-18T05:52:11;102415.69;;;8.57;71.78
25759;BME280;13604;52.496;13.456;2023-05-18T05:54:36;102437.63;;;8.83;71.63
25759;BME280;13604;52.496;13.456;2023-05-18T05:57:02;102408.72;;;8.78;71.28
25759;BME280;13604;52.496;13.456;2023-05-18T05:59:28;102428.13;;;9.06;69.93
25759;BME280;13604;52.496;13.456;2023-05-18T06:01:53;102393.53;;;8.95;69.98
25759;BME280;13604;52.496;13.456;2023-05-18T06:04:18;102409.28;;;9.08;69.38
25759;BME280;13604;52.496;13.456;2023-05-18T06:06:43;102402.06;;;9.16;68.78
25759;BME280;13604;52.496;13.456;2023-05-18T06:09:09;102406.16;;;9.24;68.07
25759;BME280;13604;52.496;13.456;2023-05-18T06:11:34;102402.69;;;9.35;67.88
25759;BME280;13604;52.496;13.456;2023-05-18T06:14:00;102423.59;;;9.59;67.35
25759;BME280;13604;52.496;13.456;2023-05-18T06:16:25;102431.28;;;9.69;68.03
25759;BME280;13604;52.496;13.456;2023-05-18T06:18:50;102418.88;;;9.77;67.65
25759;BME280;13604;52.496;13.456;2023-05-18T06:21:16;102419.09;;;9.92;65.92
25759;BME280;13604;52.496;13.456;2023-05-18T06:23:42;102434.03;;;10.06;65.68
25759;BME280;13604;52.496;13.456;2023-05-18T06:26:08;102427.38;;;10.10;65.05
25759;BME280;13604;52.496;13.456;2023-05-18T06:28:33;102395.56;;;10.02;65.45
25759;BME280;13604;52.496;13.456;2023-05-18T06:30:59;102406.31;;;10.19;65.67
25759;BME280;13604;52.496;13.456;2023-05-18T06:33:24;102412.53;;;10.32;64.11
25759;BME280;13604;52.496;13.456;2023-05-18T06:35:50;102433.72;;;10.61;64.89
25759;BME280;13604;52.496;13.456;2023-05-18T06:38:15;102362.03;;;10.30;64.09
25759;BME280;13604;52.496;13.456;2023-05-18T06:40:41;102390.97;;;10.59;62.55
25759;BME280;13604;52.496;13.456;2023-05-18T06:43:07;102414.69;;;10.87;62.02
25759;BME280;13604;52.496;13.456;2023-05-18T06:45:32;102396.56;;;10.89;60.91
25759;BME280;13604;52.496;13.456;2023-05-18T06:47:57;102437.38;;;11.13;60.65
25759;BME280;13604;52.496;13.456;2023-05-18T06:50:23;102429.78;;;11.16;61.13
25759;BME280;13604;52.496;13.456;2023-05-18T06:52:48;102428.59;;;11.24;60.23
25759;BME280;13604;52.496;13.456;2023-05-18T06:55:13;102440.91;;;11.39;59.07
25759;BME280;13604;52.496;13.456;2023-05-18T06:57:39;102385.13;;;11.12;59.30
25759;BME280;13604;52.496;13.456;2023-05-18T07:00:05;102450.38;;;11.50;59.85
25759;BME280;13604;52.496;13.456;2023-05-18T07:02:34;102393.94;;;11.39;59.32
25759;BME280;13604;52.496;13.456;2023-05-18T07:05:00;102427.56;;;11.73;58.79
25759;BME280;13604;52.496;13.456;2023-05-18T07:07:29;102436.66;;;11.91;57.86
25759;BME280;13604;52.496;13.456;2023-05-18T07:09:54;102403.25;;;11.74;56.85
25759;BME280;13604;52.496;13.456;2023-05-18T07:12:19;102425.47;;;11.94;57.59
25759;BME280;13604;52.496;13.456;2023-05-18T07:14:45;102430.00;;;11.96;56.25
25759;BME280;13604;52.496;13.456;2023-05-18T07:17:10;102420.84;;;11.90;56.52
25759;BME280;13604;52.496;13.456;2023-05-18T07:19:35;102400.19;;;11.93;56.91
25759;BME280;13604;52.496;13.456;2023-05-18T07:22:00;102412.16;;;12.03;55.34
25759;BME280;13604;52.496;13.456;2023-05-18T07:24:26;102414.97;;;12.06;54.21
25759;BME280;13604;52.496;13.456;2023-05-18T07:26:51;102402.81;;;11.93;55.09
25759;BME280;13604;52.496;13.456;2023-05-18T07:29:16;102422.69;;;12.18;55.78
25759;BME280;13604;52.496;13.456;2023-05-18T07:31:42;102410.94;;;12.11;56.28
25759;BME280;13604;52.496;13.456;2023-05-18T07:34:07;102414.84;;;12.31;56.65
25759;BME280;13604;52.496;13.456;2023-05-18T07:36:33;102414.03;;;12.45;54.75
25759;BME280;13604;52.496;13.456;2023-05-18T07:38:58;102418.50;;;12.61;53.82
25759;BME280;13604;52.496;13.456;2023-05-18T07:41:25;102413.69;;;12.67;54.52
25759;BME280;13604;52.496;13.456;2023-05-18T07:43:52;102412.69;;;12.94;53.68
25759;BME280;13604;52.496;13.456;2023-05-18T07:46:18;102422.50;;;13.39;54.26
25759;BME280;13604;52.496;13.456;2023-05-18T07:48:43;102415.75;;;13.73;53.84
25759;BME280;13604;52.496;13.456;2023-05-18T07:51:12;102413.00;;;14.31;51.11
25759;BME280;13604;52.496;13.456;2023-05-18T07:53:37;102422.50;;;15.42;47.07
25759;BME280;13604;52.496;13.456;2023-05-18T07:56:04;102395.25;;;16.27;44.20
25759;BME280;13604;52.496;13.456;2023-05-18T07:58:30;102403.78;;;17.57;41.97
25759;BME280;13604;52.496;13.456;2023-05-18T08:00:55;102422.63;;;18.29;40.60
25759;BME280;13604;52.496;13.456;2023-05-18T08:03:20;102409.63;;;17.90;38.94
25759;BME280;13604;52.496;13.456;2023-05-18T08:05:46;102412.78;;;17.21;40.44
25759;BME280;13604;52.496;13.456;2023-05-18T08:08:11;102414.09;;;16.74;41.44
25759;BME280;13604;52.496;13.456;2023-05-18T08:10:39;102434.31;;;17.32;40.70
25759;BME280;13604;52.496;13.456;2023-05-18T08:13:04;102433.25;;;18.10;38.19
25759;BME280;13604;52.496;13.456;2023-05-18T08:15:29;102406.91;;;17.89;36.92
25759;BME280;13604;52.496;13.456;2023-05-18T08:17:55;102394.97;;;17.56;37.82
25759;BME280;13604;52.496;13.456;2023-05-18T08:20:21;102433.75;;;18.22;37.57
25759;BME280;13604;52.496;13.456;2023-05-18T08:22:47;102430.16;;;19.10;36.69
25759;BME280;13604;52.496;13.456;2023-05-18T08:25:12;102407.66;;;19.46;35.61
25759;BME280;13604;52.496;13.456;2023-05-18T08:27:38;102434.28;;;19.26;34.64
25759;BME280;13604;52.496;13.456;2023-05-18T08:30:03;102432.66;;;18.61;35.70
25759;BME280;13604;52.496;13.456;2023-05-18T08:32:28;102436.22;;;18.84;34.84
25759;BME280;13604;52.496;13.456;2023-05-18T08:34:54;102436.03;;;19.76;34.68
25759;BME280;13604;52.496;13.456;2023-05-18T08:37:19;102427.25;;;19.77;34.12
25759;BME280;13604;52.496;13.456;2023-05-18T08:39:46;102427.88;;;21.09;33.14
25759;BME280;13604;52.496;13.456;2023-05-18T08:42:18;102428.09;;;22.18;31.15
25759;BME280;13604;52.496;13.456;2023-05-18T08:45:01;102410.19;;;22.46;30.87
25759;BME280;13604;52.496;13.456;2023-05-18T08:47:27;102424.72;;;21.54;31.63
25759;BME280;13604;52.496;13.456;2023-05-18T08:49:55;102421.97;;;20.60;32.63
25759;BME280;13604;52.496;13.456;2023-05-18T08:52:21;102422.31;;;19.88;34.37
25759;BME280;13604;52.496;13.456;2023-05-18T08:54:49;102408.19;;;18.87;35.50
25759;BME280;13604;52.496;13.456;2023-05-18T08:57:18;102427.25;;;18.57;36.48
25759;BME280;13604;52.496;13.456;2023-05-18T08:59:45;102427.94;;;18.08;37.21
25759;BME280;13604;52.496;13.456;2023-05-18T09:02:10;102422.03;;;17.52;37.59
25759;BME280;13604;52.496;13.456;2023-05-18T09:04:37;102435.50;;;17.39;37.40
25759;BME280;13604;52.496;13.456;2023-05-18T09:07:03;102426.50;;;17.14;38.13
25759;BME280;13604;52.496;13.456;2023-05-18T09:09:29;102424.34;;;16.86;39.05
25759;BME280;13604;52.496;13.456;2023-05-18T09:11:56;102424.47;;;16.51;38.87
25759;BME280;13604;52.496;13.456;2023-05-18T09:14:21;102415.91;;;16.19;39.37
25759;BME280;13604;52.496;13.456;2023-05-18T09:16:53;102440.75;;;16.08;40.19
25759;BME280;13604;52.496;13.456;2023-05-18T09:19:18;102403.69;;;15.84;40.93
25759;BME280;13604;52.496;13.456;2023-05-18T09:21:44;102413.25;;;15.83;41.11
25759;BME280;13604;52.496;13.456;2023-05-18T09:24:09;102420.41;;;15.86;41.20
25759;BME280;13604;52.496;13.456;2023-05-18T09:26:36;102400.66;;;15.76;41.84
25759;BME280;13604;52.496;13.456;2023-05-18T09:29:14;102391.19;;;15.80;41.38
25759;BME280;13604;52.496;13.456;2023-05-18T09:31:40;102426.41;;;16.37;40.33
25759;BME280;13604;52.496;13.456;2023-05-18T09:34:05;102424.75;;;18.83;37.29
25759;BME280;13604;52.496;13.456;2023-05-18T09:36:31;102388.47;;;21.21;32.56
25759;BME280;13604;52.496;13.456;2023-05-18T09:38:58;102405.88;;;22.13;30.49
25759;BME280;13604;52.496;13.456;2023-05-18T09:41:25;102401.63;;;23.46;29.64
25759;BME280;13604;52.496;13.456;2023-05-18T09:43:51;102417.03;;;23.66;29.16
25759;BME280;13604;52.496;13.456;2023-05-18T09:46:16;102381.28;;;22.20;29.49
25759;BME280;13604;52.496;13.456;2023-05-18T09:48:49;102400.78;;;21.19;31.54
25759;BME280;13604;52.496;13.456;2023-05-18T09:51:14;102376.59;;;19.90;33.64
25759;BME280;13604;52.496;13.456;2023-05-18T09:54:08;102403.88;;;19.89;34.23
25759;BME280;13604;52.496;13.456;2023-05-18T09:56:35;102394.63;;;19.76;33.40
25759;BME280;13604;52.496;13.456;2023-05-18T09:59:11;102395.50;;;20.02;33.35
25759;BME280;13604;52.496;13.456;2023-05-18T10:01:40;102396.75;;;20.14;34.14
25759;BME280;13604;52.496;13.456;2023-05-18T10:04:18;102411.94;;;20.77;33.74
25759;BME280;13604;52.496;13.456;2023-05-18T10:06:48;102403.53;;;22.65;30.82
25759;BME280;13604;52.496;13.456;2023-05-18T10:09:15;102407.22;;;22.72;29.43
25759;BME280;13604;52.496;13.456;2023-05-18T10:11:40;102380.97;;;20.74;30.50
25759;BME280;13604;52.496;13.456;2023-05-18T10:14:06;102387.97;;;21.68;30.21
25759;BME280;13604;52.496;13.456;2023-05-18T10:16:31;102384.22;;;23.15;29.38
25759;BME280;13604;52.496;13.456;2023-05-18T10:18:57;102371.56;;;23.03;28.53
25759;BME280;13604;52.496;13.456;2023-05-18T10:21:26;102376.31;;;21.98;28.98
25759;BME280;13604;52.496;13.456;2023-05-18T10:23:53;102367.06;;;21.47;30.73
25759;BME280;13604;52.496;13.456;2023-05-18T10:26:21;102377.25;;;22.00;30.13
25759;BME280;13604;52.496;13.456;2023-05-18T10:28:48;102390.88;;;22.15;30.03
25759;BME280;13604;52.496;13.456;2023-05-18T10:31:15;102391.84;;;21.47;30.15
25759;BME280;13604;52.496;13.456;2023-05-18T10:33:40;102364.03;;;21.33;30.66
25759;BME280;13604;52.496;13.456;2023-05-18T10:36:06;102377.63;;;21.79;29.74
25759;BME280;13604;52.496;13.456;2023-05-18T10:38:36;102330.34;;;24.37;26.89
25759;BME280;13604;52.496;13.456;2023-05-18T10:41:04;102352.16;;;27.55;24.63
25759;BME280;13604;52.496;13.456;2023-05-18T10:43:30;102330.06;;;30.27;22.13
25759;BME280;13604;52.496;13.456;2023-05-18T10:45:59;102374.81;;;32.57;19.22
25759;BME280;13604;52.496;13.456;2023-05-18T10:48:25;102374.84;;;33.36;19.01
25759;BME280;13604;52.496;13.456;2023-05-18T10:50:53;102376.44;;;33.80;18.27
25759;BME280;13604;52.496;13.456;2023-05-18T10:53:21;102372.47;;;32.38;18.73
25759;BME280;13604;52.496;13.456;2023-05-18T10:55:47;102351.13;;;29.82;20.50
25759;BME280;13604;52.496;13.456;2023-05-18T10:58:14;102360.16;;;27.64;22.84
25759;BME280;13604;52.496;13.456;2023-05-18T11:00:45;102361.06;;;27.97;22.33
25759;BME280;13604;52.496;13.456;2023-05-18T11:03:12;102371.22;;;30.31;21.17
25759;BME280;13604;52.496;13.456;2023-05-18T11:05:39;102378.81;;;32.79;19.28
25759;BME280;13604;52.496;13.456;2023-05-18T11:08:05;102377.44;;;30.34;18.90
25759;BME280;13604;52.496;13.456;2023-05-18T11:10:43;102336.47;;;31.96;18.21
25759;BME280;13604;52.496;13.456;2023-05-18T11:13:12;102361.19;;;32.21;17.60
25759;BME280;13604;52.496;13.456;2023-05-18T11:18:17;102362.66;;;29.95;19.56
25759;BME280;13604;52.496;13.456;2023-05-18T11:20:47;102357.50;;;27.69;22.02
25759;BME280;13604;52.496;13.456;2023-05-18T11:23:12;102339.59;;;27.18;22.69
25759;BME280;13604;52.496;13.456;2023-05-18T11:25:47;102355.63;;;25.52;23.91
25759;BME280;13604;52.496;13.456;2023-05-18T11:28:12;102358.59;;;24.94;24.77
25759;BME280;13604;52.496;13.456;2023-05-18T11:39:02;102348.38;;;22.12;28.87
25759;BME280;13604;52.496;13.456;2023-05-18T11:41:35;102356.97;;;22.02;29.00
25759;BME280;13604;52.496;13.456;2023-05-18T11:44:16;102354.38;;;23.31;27.43
25759;BME280;13604;52.496;13.456;2023-05-18T11:46:53;102335.69;;;23.79;26.76
25759;BME280;13604;52.496;13.456;2023-05-18T11:49:26;102353.16;;;24.84;26.21
25759;BME280;13604;52.496;13.456;2023-05-18T11:52:23;102344.09;;;27.57;21.64
25759;BME280;13604;52.496;13.456;2023-05-18T11:54:55;102338.41;;;28.89;20.69
25759;BME280;13604;52.496;13.456;2023-05-18T11:59:59;102330.41;;;29.96;20.74
25759;BME280;13604;52.496;13.456;2023-05-18T12:02:31;102320.16;;;32.49;19.03
25759;BME280;13604;52.496;13.456;2023-05-18T12:04:58;102350.22;;;35.07;16.84
25759;BME280;13604;52.496;13.456;2023-05-18T12:07:25;102344.59;;;35.42;15.83
25759;BME280;13604;52.496;13.456;2023-05-18T12:09:56;102330.69;;;35.51;16.42
25759;BME280;13604;52.496;13.456;2023-05-18T12:12:22;102337.41;;;32.40;17.93
25759;BME280;13604;52.496;13.456;2023-05-18T12:14:59;102327.47;;;29.26;20.02
25759;BME280;13604;52.496;13.456;2023-05-18T12:17:48;102347.47;;;30.70;19.74
25759;BME280;13604;52.496;13.456;2023-05-18T12:20:15;102328.34;;;33.24;17.88
25759;BME280;13604;52.496;13.456;2023-05-18T12:22:43;102339.13;;;34.57;16.43
25759;BME280;13604;52.496;13.456;2023-05-18T12:25:09;102347.69;;;34.10;16.62
25759;BME280;13604;52.496;13.456;2023-05-18T12:27:42;102330.06;;;33.28;17.47
25759;BME280;13604;52.496;13.456;2023-05-18T12:32:36;102339.00;;;30.99;19.49
25759;BME280;13604;52.496;13.456;2023-05-18T12:35:03;102346.34;;;33.59;18.28
25759;BME280;13604;52.496;13.456;2023-05-18T12:37:29;102319.75;;;35.29;16.00
25759;BME280;13604;52.496;13.456;2023-05-18T12:39:55;102321.91;;;36.67;15.34
25759;BME280;13604;52.496;13.456;2023-05-18T12:42:20;102327.56;;;34.20;16.82
25759;BME280;13604;52.496;13.456;2023-05-18T12:44:47;102329.69;;;34.70;16.68
25759;BME280;13604;52.496;13.456;2023-05-18T12:47:14;102306.59;;;34.60;16.31
25759;BME280;13604;52.496;13.456;2023-05-18T12:49:42;102331.25;;;33.50;16.89
25759;BME280;13604;52.496;13.456;2023-05-18T12:52:14;102338.03;;;31.05;18.69
25759;BME280;13604;52.496;13.456;2023-05-18T12:54:55;102300.28;;;29.62;20.00
25759;BME280;13604;52.496;13.456;2023-05-18T12:57:26;102327.97;;;28.17;21.19
25759;BME280;13604;52.496;13.456;2023-05-18T12:59:56;102326.06;;;28.62;21.10
25759;BME280;13604;52.496;13.456;2023-05-18T13:02:35;102320.38;;;30.83;18.78
25759;BME280;13604;52.496;13.456;2023-05-18T13:05:08;102315.06;;;32.35;17.75